Covington, VA

4:09 AM EDT on July 02, 2015 (GMT -0400)
Rich Patch Rd between Bensrun Rd and blue Spring Run Rd | | Change Station
CLOSE
Current Station
Personal Weather Station
Location: Covington, VA
Elevation: 1604 ft
Nearby Weather Stations

Elev 1604 ft 37.68 °N, 80.07 °W | Updated 9 minutes ago

Overcast
Overcast
63.1 °F
Feels Like 63.1 °F
N
0.0
Wind Variable Wind from SSW

Today
High -- | Low -- °F
--% Chance of Precip.
Yesterday
High -- | Low -- °F
Precip. -- in
6:02 AM 8:45 PM
Full, 100% visible
Pressure 29.97 in
Visibility 3.0 miles
Clouds Scattered Clouds 2100 ft
Mostly Cloudy 8000 ft
Overcast 12000 ft
Dew Point 62 °F
Humidity 96%
Rainfall 0.00 in
Snow Depth Not available.
UV 0 out of 12
Pollen 3.80 out of 12
Air Quality Not available.
Flu Activity Not available.
METAR KLWB 020755Z AUTO 00000KT 3SM BR SCT021 BKN080 OVC120 19/18 A2997 RMK AO2 T01900177

More Conditions Fewer Conditions

Pressure 29.97 in
Visibility 3.0 miles
Clouds Scattered Clouds 2100 ft
Mostly Cloudy 8000 ft
Overcast 12000 ft
Dew Point 62 °F
Humidity 96%
Rainfall 0.00 in
Snow Depth Not available.
UV 0 out of 12
Pollen 3.80 out of 12
Air Quality Not available.
Flu Activity Not available.
METAR KLWB 020755Z AUTO 00000KT 3SM BR SCT021 BKN080 OVC120 19/18 A2997 RMK AO2 T01900177

More Conditions Fewer Conditions

10-Day Weather Forecast

×

Almanac

Astronomy

Jul. 02, 2015 Rise Set
Actual Time
Civil Twilight
Nautical Twilight
Astronomical Twilight
Moon
Length of Visible Light
Length of Day
Tomorrow will be .
, % of the Moon is Illuminated

Today's Extremes

State Highs State Lows

Community

WunderPhotos

Upload Photos

1,834,424 photos uploaded!

WunderBlogs® & News

Nearby

Air Quality

  Air Quality AQ Index Pollutant
Not available.

Snow Depth

Station Depth Elevation

Earthquake Activity

City Distance Mag. Time & Date
Minimum magnitude displayed is 2.5.

Coastal Water Temperatures

Place Temperature

Stations

Nearby Weather Stations

Station Location Temp. Windchill Dew Point Humidity Wind Precip. Elev Updated Type